sensor_id;sensor_type;location;lat;lon;timestamp;P1;durP1;ratioP1;P2;durP2;ratioP2
13951;SDS011;39535;52.192;9.886;2022-10-24T00:00:25;2.63;;;2.43;;
13951;SDS011;39535;52.192;9.886;2022-10-24T00:02:52;3.83;;;2.03;;
13951;SDS011;39535;52.192;9.886;2022-10-24T00:05:18;3.93;;;2.43;;
13951;SDS011;39535;52.192;9.886;2022-10-24T00:07:45;3.07;;;2.40;;
13951;SDS011;39535;52.192;9.886;2022-10-24T00:10:13;6.53;;;2.30;;
13951;SDS011;39535;52.192;9.886;2022-10-24T00:12:39;2.10;;;1.80;;
13951;SDS011;39535;52.192;9.886;2022-10-24T00:15:06;6.57;;;2.30;;
13951;SDS011;39535;52.192;9.886;2022-10-24T00:17:35;3.97;;;1.83;;
13951;SDS011;39535;52.192;9.886;2022-10-24T00:20:02;2.90;;;1.80;;
13951;SDS011;39535;52.192;9.886;2022-10-24T00:22:30;3.93;;;2.23;;
13951;SDS011;39535;52.192;9.886;2022-10-24T00:24:56;2.80;;;1.97;;
13951;SDS011;39535;52.192;9.886;2022-10-24T00:27:23;2.80;;;2.60;;
13951;SDS011;39535;52.192;9.886;2022-10-24T00:29:49;2.23;;;2.00;;
13951;SDS011;39535;52.192;9.886;2022-10-24T00:32:16;3.90;;;2.30;;
13951;SDS011;39535;52.192;9.886;2022-10-24T00:34:44;3.77;;;2.13;;
13951;SDS011;39535;52.192;9.886;2022-10-24T00:37:10;13.63;;;3.70;;
13951;SDS011;39535;52.192;9.886;2022-10-24T00:39:37;5.10;;;2.17;;
13951;SDS011;39535;52.192;9.886;2022-10-24T00:42:03;5.33;;;1.93;;
13951;SDS011;39535;52.192;9.886;2022-10-24T00:44:31;5.20;;;1.90;;
13951;SDS011;39535;52.192;9.886;2022-10-24T00:46:59;5.53;;;3.57;;
13951;SDS011;39535;52.192;9.886;2022-10-24T00:49:29;4.20;;;2.30;;
13951;SDS011;39535;52.192;9.886;2022-10-24T00:52:01;4.73;;;2.10;;
13951;SDS011;39535;52.192;9.886;2022-10-24T00:54:32;6.03;;;2.60;;
13951;SDS011;39535;52.192;9.886;2022-10-24T00:57:02;6.87;;;2.13;;
13951;SDS011;39535;52.192;9.886;2022-10-24T00:59:33;4.73;;;2.43;;
13951;SDS011;39535;52.192;9.886;2022-10-24T01:02:01;2.17;;;2.00;;
13951;SDS011;39535;52.192;9.886;2022-10-24T01:04:28;2.80;;;2.10;;
13951;SDS011;39535;52.192;9.886;2022-10-24T01:07:02;2.40;;;2.20;;
13951;SDS011;39535;52.192;9.886;2022-10-24T01:09:43;2.37;;;2.17;;
13951;SDS011;39535;52.192;9.886;2022-10-24T01:12:24;3.07;;;2.23;;
13951;SDS011;39535;52.192;9.886;2022-10-24T01:15:02;3.90;;;2.40;;
13951;SDS011;39535;52.192;9.886;2022-10-24T01:17:38;8.77;;;2.80;;
13951;SDS011;39535;52.192;9.886;2022-10-24T01:23:25;3.00;;;2.60;;
13951;SDS011;39535;52.192;9.886;2022-10-24T01:26:01;3.07;;;2.30;;
13951;SDS011;39535;52.192;9.886;2022-10-24T01:28:43;4.40;;;2.80;;
13951;SDS011;39535;52.192;9.886;2022-10-24T01:31:19;3.50;;;2.47;;
13951;SDS011;39535;52.192;9.886;2022-10-24T01:33:53;4.40;;;2.47;;
13951;SDS011;39535;52.192;9.886;2022-10-24T01:36:24;5.57;;;2.50;;
13951;SDS011;39535;52.192;9.886;2022-10-24T01:38:58;5.73;;;2.43;;
13951;SDS011;39535;52.192;9.886;2022-10-24T01:41:29;3.37;;;2.60;;
13951;SDS011;39535;52.192;9.886;2022-10-24T01:43:58;6.10;;;3.03;;
13951;SDS011;39535;52.192;9.886;2022-10-24T01:46:32;2.60;;;2.17;;
13951;SDS011;39535;52.192;9.886;2022-10-24T01:49:03;4.63;;;3.10;;
13951;SDS011;39535;52.192;9.886;2022-10-24T01:51:34;4.00;;;2.80;;
13951;SDS011;39535;52.192;9.886;2022-10-24T01:54:03;4.40;;;2.40;;
13951;SDS011;39535;52.192;9.886;2022-10-24T01:56:32;4.30;;;2.40;;
13951;SDS011;39535;52.192;9.886;2022-10-24T01:59:05;3.50;;;2.10;;
13951;SDS011;39535;52.192;9.886;2022-10-24T02:01:33;3.23;;;2.57;;
13951;SDS011;39535;52.192;9.886;2022-10-24T02:04:02;4.43;;;2.83;;
13951;SDS011;39535;52.192;9.886;2022-10-24T02:06:34;3.23;;;2.93;;
13951;SDS011;39535;52.192;9.886;2022-10-24T02:09:05;4.47;;;2.40;;
13951;SDS011;39535;52.192;9.886;2022-10-24T02:11:36;5.70;;;2.57;;
13951;SDS011;39535;52.192;9.886;2022-10-24T02:14:04;2.97;;;2.37;;
13951;SDS011;39535;52.192;9.886;2022-10-24T02:16:36;10.50;;;3.27;;
13951;SDS011;39535;52.192;9.886;2022-10-24T02:19:03;7.20;;;2.90;;
13951;SDS011;39535;52.192;9.886;2022-10-24T02:21:31;7.77;;;3.40;;
13951;SDS011;39535;52.192;9.886;2022-10-24T02:24:04;9.00;;;2.40;;
13951;SDS011;39535;52.192;9.886;2022-10-24T02:26:36;4.93;;;2.30;;
13951;SDS011;39535;52.192;9.886;2022-10-24T02:29:10;4.90;;;2.70;;
13951;SDS011;39535;52.192;9.886;2022-10-24T02:31:43;4.00;;;2.27;;
13951;SDS011;39535;52.192;9.886;2022-10-24T02:34:15;7.30;;;2.23;;
13951;SDS011;39535;52.192;9.886;2022-10-24T02:36:43;5.00;;;2.67;;
13951;SDS011;39535;52.192;9.886;2022-10-24T02:39:13;2.43;;;2.23;;
13951;SDS011;39535;52.192;9.886;2022-10-24T02:41:41;7.07;;;2.57;;
13951;SDS011;39535;52.192;9.886;2022-10-24T02:44:10;6.13;;;2.67;;
13951;SDS011;39535;52.192;9.886;2022-10-24T02:46:38;4.77;;;2.90;;
13951;SDS011;39535;52.192;9.886;2022-10-24T02:49:09;3.27;;;2.47;;
13951;SDS011;39535;52.192;9.886;2022-10-24T02:51:37;4.57;;;2.57;;
13951;SDS011;39535;52.192;9.886;2022-10-24T02:54:06;3.93;;;2.60;;
13951;SDS011;39535;52.192;9.886;2022-10-24T02:56:33;4.63;;;2.73;;
13951;SDS011;39535;52.192;9.886;2022-10-24T02:59:02;5.27;;;2.87;;
13951;SDS011;39535;52.192;9.886;2022-10-24T03:01:28;3.97;;;2.90;;
13951;SDS011;39535;52.192;9.886;2022-10-24T03:03:55;10.33;;;3.10;;
13951;SDS011;39535;52.192;9.886;2022-10-24T03:06:22;5.53;;;2.90;;
13951;SDS011;39535;52.192;9.886;2022-10-24T03:08:49;3.43;;;2.47;;
13951;SDS011;39535;52.192;9.886;2022-10-24T03:11:15;8.87;;;2.83;;
13951;SDS011;39535;52.192;9.886;2022-10-24T03:13:42;3.93;;;2.77;;
13951;SDS011;39535;52.192;9.886;2022-10-24T03:16:08;7.57;;;3.17;;
13951;SDS011;39535;52.192;9.886;2022-10-24T03:18:35;6.80;;;2.70;;
13951;SDS011;39535;52.192;9.886;2022-10-24T03:21:01;4.00;;;3.30;;
13951;SDS011;39535;52.192;9.886;2022-10-24T03:23:29;4.97;;;3.07;;
13951;SDS011;39535;52.192;9.886;2022-10-24T03:25:56;6.70;;;3.57;;
13951;SDS011;39535;52.192;9.886;2022-10-24T03:28:24;7.00;;;3.00;;
13951;SDS011;39535;52.192;9.886;2022-10-24T03:30:51;7.63;;;3.00;;
13951;SDS011;39535;52.192;9.886;2022-10-24T03:33:18;5.27;;;2.47;;
13951;SDS011;39535;52.192;9.886;2022-10-24T03:35:45;3.50;;;2.50;;
13951;SDS011;39535;52.192;9.886;2022-10-24T03:38:11;4.80;;;3.30;;
13951;SDS011;39535;52.192;9.886;2022-10-24T03:40:39;3.60;;;2.77;;
13951;SDS011;39535;52.192;9.886;2022-10-24T03:43:06;6.87;;;2.80;;
13951;SDS011;39535;52.192;9.886;2022-10-24T03:45:33;5.17;;;3.30;;
13951;SDS011;39535;52.192;9.886;2022-10-24T03:48:01;4.33;;;3.43;;
13951;SDS011;39535;52.192;9.886;2022-10-24T03:50:28;7.03;;;3.30;;
13951;SDS011;39535;52.192;9.886;2022-10-24T03:52:54;7.40;;;3.57;;
13951;SDS011;39535;52.192;9.886;2022-10-24T03:55:21;5.80;;;3.37;;
13951;SDS011;39535;52.192;9.886;2022-10-24T03:57:48;6.47;;;3.60;;
13951;SDS011;39535;52.192;9.886;2022-10-24T04:00:15;11.93;;;3.83;;
13951;SDS011;39535;52.192;9.886;2022-10-24T04:02:43;6.03;;;3.13;;
13951;SDS011;39535;52.192;9.886;2022-10-24T04:05:10;5.23;;;3.17;;
13951;SDS011;39535;52.192;9.886;2022-10-24T04:07:36;8.23;;;3.10;;
13951;SDS011;39535;52.192;9.886;2022-10-24T04:10:03;7.07;;;3.50;;
13951;SDS011;39535;52.192;9.886;2022-10-24T04:12:31;7.57;;;3.37;;
13951;SDS011;39535;52.192;9.886;2022-10-24T04:14:59;9.47;;;3.40;;
13951;SDS011;39535;52.192;9.886;2022-10-24T04:17:25;5.87;;;3.03;;
13951;SDS011;39535;52.192;9.886;2022-10-24T04:19:52;5.67;;;2.77;;
13951;SDS011;39535;52.192;9.886;2022-10-24T04:22:18;7.43;;;3.53;;
13951;SDS011;39535;52.192;9.886;2022-10-24T04:24:45;5.57;;;3.27;;
13951;SDS011;39535;52.192;9.886;2022-10-24T04:27:11;5.67;;;3.20;;
13951;SDS011;39535;52.192;9.886;2022-10-24T04:29:37;5.47;;;3.23;;
13951;SDS011;39535;52.192;9.886;2022-10-24T04:32:05;4.23;;;2.83;;
13951;SDS011;39535;52.192;9.886;2022-10-24T04:34:32;7.63;;;3.70;;
13951;SDS011;39535;52.192;9.886;2022-10-24T04:37:00;7.00;;;3.50;;
13951;SDS011;39535;52.192;9.886;2022-10-24T04:39:26;10.77;;;3.13;;
13951;SDS011;39535;52.192;9.886;2022-10-24T04:41:52;7.17;;;3.03;;
13951;SDS011;39535;52.192;9.886;2022-10-24T04:44:19;4.93;;;3.20;;
13951;SDS011;39535;52.192;9.886;2022-10-24T04:46:45;9.27;;;3.10;;
13951;SDS011;39535;52.192;9.886;2022-10-24T04:49:13;6.33;;;3.60;;
13951;SDS011;39535;52.192;9.886;2022-10-24T04:51:40;6.23;;;3.40;;
13951;SDS011;39535;52.192;9.886;2022-10-24T04:54:06;6.17;;;3.20;;
13951;SDS011;39535;52.192;9.886;2022-10-24T04:56:33;5.07;;;2.90;;
13951;SDS011;39535;52.192;9.886;2022-10-24T04:58:59;7.47;;;2.77;;
13951;SDS011;39535;52.192;9.886;2022-10-24T05:01:26;9.30;;;3.50;;
13951;SDS011;39535;52.192;9.886;2022-10-24T05:03:53;5.67;;;3.00;;
13951;SDS011;39535;52.192;9.886;2022-10-24T05:06:20;5.53;;;2.87;;
13951;SDS011;39535;52.192;9.886;2022-10-24T05:08:47;3.70;;;2.80;;
13951;SDS011;39535;52.192;9.886;2022-10-24T05:11:13;6.67;;;2.73;;
13951;SDS011;39535;52.192;9.886;2022-10-24T05:13:40;4.23;;;3.10;;
13951;SDS011;39535;52.192;9.886;2022-10-24T05:16:06;6.43;;;3.30;;
13951;SDS011;39535;52.192;9.886;2022-10-24T05:18:33;6.03;;;3.10;;
13951;SDS011;39535;52.192;9.886;2022-10-24T05:20:59;7.63;;;3.63;;
13951;SDS011;39535;52.192;9.886;2022-10-24T05:23:27;6.33;;;3.13;;
13951;SDS011;39535;52.192;9.886;2022-10-24T05:25:54;4.27;;;3.20;;
13951;SDS011;39535;52.192;9.886;2022-10-24T05:28:20;5.27;;;3.00;;
13951;SDS011;39535;52.192;9.886;2022-10-24T05:30:46;8.57;;;3.00;;
13951;SDS011;39535;52.192;9.886;2022-10-24T05:33:13;6.73;;;3.67;;
13951;SDS011;39535;52.192;9.886;2022-10-24T05:35:40;8.87;;;3.03;;
13951;SDS011;39535;52.192;9.886;2022-10-24T05:38:07;5.77;;;3.40;;
13951;SDS011;39535;52.192;9.886;2022-10-24T05:40:35;5.87;;;3.03;;
13951;SDS011;39535;52.192;9.886;2022-10-24T05:43:01;6.73;;;3.23;;
13951;SDS011;39535;52.192;9.886;2022-10-24T05:45:28;10.70;;;3.43;;
13951;SDS011;39535;52.192;9.886;2022-10-24T05:47:54;15.30;;;3.90;;
13951;SDS011;39535;52.192;9.886;2022-10-24T05:50:21;7.67;;;3.67;;
13951;SDS011;39535;52.192;9.886;2022-10-24T05:52:47;10.63;;;3.13;;
13951;SDS011;39535;52.192;9.886;2022-10-24T05:55:13;5.80;;;3.03;;
13951;SDS011;39535;52.192;9.886;2022-10-24T05:57:42;6.67;;;4.20;;
13951;SDS011;39535;52.192;9.886;2022-10-24T06:00:10;5.27;;;2.70;;
13951;SDS011;39535;52.192;9.886;2022-10-24T06:02:39;5.70;;;2.90;;
13951;SDS011;39535;52.192;9.886;2022-10-24T06:05:06;8.70;;;3.30;;
13951;SDS011;39535;52.192;9.886;2022-10-24T06:07:33;6.63;;;2.80;;
13951;SDS011;39535;52.192;9.886;2022-10-24T06:10:00;8.63;;;3.17;;
13951;SDS011;39535;52.192;9.886;2022-10-24T06:12:28;9.57;;;3.57;;
13951;SDS011;39535;52.192;9.886;2022-10-24T06:14:56;4.83;;;3.10;;
13951;SDS011;39535;52.192;9.886;2022-10-24T06:17:23;4.63;;;3.20;;
13951;SDS011;39535;52.192;9.886;2022-10-24T06:19:50;7.03;;;2.83;;
13951;SDS011;39535;52.192;9.886;2022-10-24T06:22:17;8.20;;;3.23;;
13951;SDS011;39535;52.192;9.886;2022-10-24T06:24:44;6.77;;;3.23;;
13951;SDS011;39535;52.192;9.886;2022-10-24T06:27:10;6.07;;;3.33;;
13951;SDS011;39535;52.192;9.886;2022-10-24T06:29:37;6.20;;;2.97;;
13951;SDS011;39535;52.192;9.886;2022-10-24T06:32:05;9.03;;;2.80;;
13951;SDS011;39535;52.192;9.886;2022-10-24T06:34:31;6.43;;;3.10;;
13951;SDS011;39535;52.192;9.886;2022-10-24T06:36:58;5.13;;;3.10;;
13951;SDS011;39535;52.192;9.886;2022-10-24T06:39:24;4.20;;;2.83;;
13951;SDS011;39535;52.192;9.886;2022-10-24T06:41:51;5.37;;;2.67;;
13951;SDS011;39535;52.192;9.886;2022-10-24T06:44:17;6.53;;;3.27;;
13951;SDS011;39535;52.192;9.886;2022-10-24T06:46:44;4.30;;;2.97;;
13951;SDS011;39535;52.192;9.886;2022-10-24T06:49:12;10.50;;;3.50;;
13951;SDS011;39535;52.192;9.886;2022-10-24T06:51:39;5.50;;;3.00;;
13951;SDS011;39535;52.192;9.886;2022-10-24T06:54:06;5.87;;;2.70;;
13951;SDS011;39535;52.192;9.886;2022-10-24T06:56:32;5.40;;;2.83;;
13951;SDS011;39535;52.192;9.886;2022-10-24T06:58:59;5.30;;;2.63;;
13951;SDS011;39535;52.192;9.886;2022-10-24T07:01:25;8.70;;;3.13;;
13951;SDS011;39535;52.192;9.886;2022-10-24T07:03:52;5.00;;;2.30;;
13951;SDS011;39535;52.192;9.886;2022-10-24T07:06:21;6.07;;;2.80;;
13951;SDS011;39535;52.192;9.886;2022-10-24T07:08:50;5.83;;;2.40;;
13951;SDS011;39535;52.192;9.886;2022-10-24T07:11:18;12.10;;;3.00;;
13951;SDS011;39535;52.192;9.886;2022-10-24T07:13:44;5.60;;;2.50;;
13951;SDS011;39535;52.192;9.886;2022-10-24T07:16:11;8.33;;;3.27;;
13951;SDS011;39535;52.192;9.886;2022-10-24T07:18:38;6.17;;;3.03;;
13951;SDS011;39535;52.192;9.886;2022-10-24T07:21:05;9.43;;;3.23;;
13951;SDS011;39535;52.192;9.886;2022-10-24T07:23:34;5.83;;;3.13;;
13951;SDS011;39535;52.192;9.886;2022-10-24T07:26:02;9.03;;;2.57;;
13951;SDS011;39535;52.192;9.886;2022-10-24T07:28:29;5.47;;;2.63;;
13951;SDS011;39535;52.192;9.886;2022-10-24T07:30:55;5.70;;;2.87;;
13951;SDS011;39535;52.192;9.886;2022-10-24T07:33:22;6.87;;;2.70;;
13951;SDS011;39535;52.192;9.886;2022-10-24T07:35:48;6.00;;;2.50;;
13951;SDS011;39535;52.192;9.886;2022-10-24T07:38:15;6.37;;;2.40;;
13951;SDS011;39535;52.192;9.886;2022-10-24T07:40:43;6.10;;;3.20;;
13951;SDS011;39535;52.192;9.886;2022-10-24T07:43:10;8.90;;;3.20;;
13951;SDS011;39535;52.192;9.886;2022-10-24T07:45:36;7.53;;;2.53;;
13951;SDS011;39535;52.192;9.886;2022-10-24T07:48:03;6.20;;;2.80;;
13951;SDS011;39535;52.192;9.886;2022-10-24T07:50:30;4.67;;;2.80;;
13951;SDS011;39535;52.192;9.886;2022-10-24T07:52:57;9.97;;;2.47;;
13951;SDS011;39535;52.192;9.886;2022-10-24T07:55:24;5.77;;;2.80;;
13951;SDS011;39535;52.192;9.886;2022-10-24T07:57:51;3.57;;;2.23;;
13951;SDS011;39535;52.192;9.886;2022-10-24T08:00:18;4.70;;;2.20;;
13951;SDS011;39535;52.192;9.886;2022-10-24T08:02:45;7.43;;;3.00;;
13951;SDS011;39535;52.192;9.886;2022-10-24T08:05:11;7.67;;;2.20;;
13951;SDS011;39535;52.192;9.886;2022-10-24T08:07:38;5.53;;;2.30;;
13951;SDS011;39535;52.192;9.886;2022-10-24T08:10:05;5.97;;;2.10;;
13951;SDS011;39535;52.192;9.886;2022-10-24T08:12:33;9.90;;;3.07;;
13951;SDS011;39535;52.192;9.886;2022-10-24T08:15:01;3.73;;;1.90;;
13951;SDS011;39535;52.192;9.886;2022-10-24T08:17:27;9.70;;;2.23;;
13951;SDS011;39535;52.192;9.886;2022-10-24T08:19:54;4.33;;;2.70;;
13951;SDS011;39535;52.192;9.886;2022-10-24T08:22:20;5.00;;;2.60;;
13951;SDS011;39535;52.192;9.886;2022-10-24T08:24:47;4.90;;;2.43;;
13951;SDS011;39535;52.192;9.886;2022-10-24T08:27:14;5.03;;;2.50;;
13951;SDS011;39535;52.192;9.886;2022-10-24T08:29:40;5.20;;;2.27;;
13951;SDS011;39535;52.192;9.886;2022-10-24T08:32:08;6.80;;;2.17;;
13951;SDS011;39535;52.192;9.886;2022-10-24T08:34:36;3.07;;;2.20;;
13951;SDS011;39535;52.192;9.886;2022-10-24T08:37:03;4.30;;;2.00;;
13951;SDS011;39535;52.192;9.886;2022-10-24T08:39:30;5.00;;;2.67;;
13951;SDS011;39535;52.192;9.886;2022-10-24T08:41:56;4.93;;;2.03;;
13951;SDS011;39535;52.192;9.886;2022-10-24T08:44:27;5.63;;;2.43;;
13951;SDS011;39535;52.192;9.886;2022-10-24T08:46:56;3.87;;;2.40;;
13951;SDS011;39535;52.192;9.886;2022-10-24T08:49:29;5.50;;;2.33;;
13951;SDS011;39535;52.192;9.886;2022-10-24T08:52:03;5.33;;;2.30;;
13951;SDS011;39535;52.192;9.886;2022-10-24T08:54:37;5.03;;;2.60;;
13951;SDS011;39535;52.192;9.886;2022-10-24T08:57:08;7.87;;;2.43;;
13951;SDS011;39535;52.192;9.886;2022-10-24T08:59:42;4.33;;;2.20;;
13951;SDS011;39535;52.192;9.886;2022-10-24T09:02:12;6.13;;;2.47;;
13951;SDS011;39535;52.192;9.886;2022-10-24T09:04:46;3.87;;;1.83;;
13951;SDS011;39535;52.192;9.886;2022-10-24T09:07:18;5.93;;;2.20;;
13951;SDS011;39535;52.192;9.886;2022-10-24T09:09:47;4.67;;;1.97;;
13951;SDS011;39535;52.192;9.886;2022-10-24T09:12:15;3.87;;;1.87;;
13951;SDS011;39535;52.192;9.886;2022-10-24T09:14:45;4.70;;;2.00;;
13951;SDS011;39535;52.192;9.886;2022-10-24T09:17:16;4.37;;;1.90;;
13951;SDS011;39535;52.192;9.886;2022-10-24T09:19:48;6.87;;;2.77;;
13951;SDS011;39535;52.192;9.886;2022-10-24T09:22:18;4.53;;;2.00;;
13951;SDS011;39535;52.192;9.886;2022-10-24T09:24:47;3.77;;;2.17;;
13951;SDS011;39535;52.192;9.886;2022-10-24T09:27:18;5.53;;;2.27;;
13951;SDS011;39535;52.192;9.886;2022-10-24T09:29:46;3.90;;;2.07;;
13951;SDS011;39535;52.192;9.886;2022-10-24T09:32:14;5.60;;;2.40;;
13951;SDS011;39535;52.192;9.886;2022-10-24T09:34:42;5.27;;;2.07;;
13951;SDS011;39535;52.192;9.886;2022-10-24T09:40:03;4.17;;;1.80;;
13951;SDS011;39535;52.192;9.886;2022-10-24T09:42:32;4.00;;;2.00;;
13951;SDS011;39535;52.192;9.886;2022-10-24T09:45:01;3.50;;;1.90;;
13951;SDS011;39535;52.192;9.886;2022-10-24T09:47:44;4.33;;;2.10;;
13951;SDS011;39535;52.192;9.886;2022-10-24T09:50:17;4.40;;;2.00;;
13951;SDS011;39535;52.192;9.886;2022-10-24T09:52:48;6.00;;;2.30;;
13951;SDS011;39535;52.192;9.886;2022-10-24T09:55:16;3.60;;;2.10;;
13951;SDS011;39535;52.192;9.886;2022-10-24T09:57:46;5.70;;;2.50;;
13951;SDS011;39535;52.192;9.886;2022-10-24T10:00:21;4.70;;;2.23;;
13951;SDS011;39535;52.192;9.886;2022-10-24T10:02:55;6.53;;;1.73;;
13951;SDS011;39535;52.192;9.886;2022-10-24T10:05:23;7.30;;;1.97;;
13951;SDS011;39535;52.192;9.886;2022-10-24T10:07:51;5.60;;;2.30;;
13951;SDS011;39535;52.192;9.886;2022-10-24T10:10:23;3.97;;;1.70;;
13951;SDS011;39535;52.192;9.886;2022-10-24T10:12:58;2.83;;;2.10;;
13951;SDS011;39535;52.192;9.886;2022-10-24T10:15:31;4.67;;;1.67;;
13951;SDS011;39535;52.192;9.886;2022-10-24T10:18:01;4.17;;;1.90;;
13951;SDS011;39535;52.192;9.886;2022-10-24T10:20:31;2.60;;;1.70;;
13951;SDS011;39535;52.192;9.886;2022-10-24T10:26:00;4.73;;;1.90;;
13951;SDS011;39535;52.192;9.886;2022-10-24T10:28:46;3.70;;;1.63;;
13951;SDS011;39535;52.192;9.886;2022-10-24T10:31:18;5.03;;;1.93;;
13951;SDS011;39535;52.192;9.886;2022-10-24T10:33:50;4.27;;;2.40;;
13951;SDS011;39535;52.192;9.886;2022-10-24T10:36:30;3.63;;;2.03;;
13951;SDS011;39535;52.192;9.886;2022-10-24T10:39:04;6.37;;;2.13;;
13951;SDS011;39535;52.192;9.886;2022-10-24T10:41:45;3.53;;;2.00;;
13951;SDS011;39535;52.192;9.886;2022-10-24T10:44:23;4.13;;;1.87;;
13951;SDS011;39535;52.192;9.886;2022-10-24T10:47:01;6.80;;;1.63;;
13951;SDS011;39535;52.192;9.886;2022-10-24T10:49:36;2.83;;;1.77;;
13951;SDS011;39535;52.192;9.886;2022-10-24T10:52:05;3.27;;;1.57;;
13951;SDS011;39535;52.192;9.886;2022-10-24T10:54:41;5.20;;;1.67;;
13951;SDS011;39535;52.192;9.886;2022-10-24T10:57:20;3.63;;;1.70;;
13951;SDS011;39535;52.192;9.886;2022-10-24T10:59:50;1.77;;;1.27;;
13951;SDS011;39535;52.192;9.886;2022-10-24T11:02:39;5.77;;;2.13;;
13951;SDS011;39535;52.192;9.886;2022-10-24T11:05:19;5.43;;;1.77;;
13951;SDS011;39535;52.192;9.886;2022-10-24T11:08:00;6.53;;;2.10;;
13951;SDS011;39535;52.192;9.886;2022-10-24T11:10:36;4.00;;;1.67;;
13951;SDS011;39535;52.192;9.886;2022-10-24T11:13:09;2.80;;;1.87;;
13951;SDS011;39535;52.192;9.886;2022-10-24T11:15:41;3.77;;;1.80;;
13951;SDS011;39535;52.192;9.886;2022-10-24T11:18:13;3.53;;;2.03;;
13951;SDS011;39535;52.192;9.886;2022-10-24T11:20:47;4.93;;;2.03;;
13951;SDS011;39535;52.192;9.886;2022-10-24T11:23:18;5.23;;;1.50;;
13951;SDS011;39535;52.192;9.886;2022-10-24T11:25:55;4.73;;;1.93;;
13951;SDS011;39535;52.192;9.886;2022-10-24T11:28:25;4.90;;;1.50;;
13951;SDS011;39535;52.192;9.886;2022-10-24T11:30:57;4.93;;;1.60;;
13951;SDS011;39535;52.192;9.886;2022-10-24T11:33:27;5.13;;;2.27;;
13951;SDS011;39535;52.192;9.886;2022-10-24T11:36:05;3.53;;;1.83;;
13951;SDS011;39535;52.192;9.886;2022-10-24T11:38:35;3.17;;;1.57;;
13951;SDS011;39535;52.192;9.886;2022-10-24T11:44:02;5.03;;;1.97;;
13951;SDS011;39535;52.192;9.886;2022-10-24T11:46:38;3.60;;;1.77;;
13951;SDS011;39535;52.192;9.886;2022-10-24T11:49:10;2.17;;;1.57;;
13951;SDS011;39535;52.192;9.886;2022-10-24T11:51:45;3.83;;;1.57;;
13951;SDS011;39535;52.192;9.886;2022-10-24T11:54:18;4.13;;;2.07;;
13951;SDS011;39535;52.192;9.886;2022-10-24T11:56:50;2.93;;;1.60;;
13951;SDS011;39535;52.192;9.886;2022-10-24T11:59:22;5.10;;;2.60;;
13951;SDS011;39535;52.192;9.886;2022-10-24T12:01:50;3.70;;;1.47;;
13951;SDS011;39535;52.192;9.886;2022-10-24T12:04:59;3.57;;;1.50;;
13951;SDS011;39535;52.192;9.886;2022-10-24T12:14:00;3.27;;;1.73;;
13951;SDS011;39535;52.192;9.886;2022-10-24T12:16:46;3.43;;;2.03;;
13951;SDS011;39535;52.192;9.886;2022-10-24T12:19:21;5.63;;;2.00;;
13951;SDS011;39535;52.192;9.886;2022-10-24T12:21:50;4.33;;;1.70;;
13951;SDS011;39535;52.192;9.886;2022-10-24T12:24:20;3.80;;;1.40;;
13951;SDS011;39535;52.192;9.886;2022-10-24T12:26:54;3.90;;;2.17;;
13951;SDS011;39535;52.192;9.886;2022-10-24T12:29:24;3.53;;;1.70;;
13951;SDS011;39535;52.192;9.886;2022-10-24T12:31:52;3.37;;;1.50;;
13951;SDS011;39535;52.192;9.886;2022-10-24T12:34:29;6.47;;;1.80;;
13951;SDS011;39535;52.192;9.886;2022-10-24T12:37:08;3.43;;;1.63;;
13951;SDS011;39535;52.192;9.886;2022-10-24T12:39:37;3.53;;;1.70;;
13951;SDS011;39535;52.192;9.886;2022-10-24T12:42:10;7.33;;;1.53;;
13951;SDS011;39535;52.192;9.886;2022-10-24T12:44:41;3.83;;;1.47;;
13951;SDS011;39535;52.192;9.886;2022-10-24T12:47:23;6.40;;;1.80;;
13951;SDS011;39535;52.192;9.886;2022-10-24T12:49:52;2.47;;;1.00;;
13951;SDS011;39535;52.192;9.886;2022-10-24T12:55:27;3.87;;;1.37;;
13951;SDS011;39535;52.192;9.886;2022-10-24T12:57:56;4.50;;;1.00;;
13951;SDS011;39535;52.192;9.886;2022-10-24T13:00:25;3.73;;;1.27;;
13951;SDS011;39535;52.192;9.886;2022-10-24T13:03:01;2.17;;;1.47;;
13951;SDS011;39535;52.192;9.886;2022-10-24T13:05:44;5.23;;;1.40;;
13951;SDS011;39535;52.192;9.886;2022-10-24T13:08:27;3.93;;;1.07;;
13951;SDS011;39535;52.192;9.886;2022-10-24T13:11:11;2.73;;;1.20;;
13951;SDS011;39535;52.192;9.886;2022-10-24T13:13:59;4.30;;;0.93;;
13951;SDS011;39535;52.192;9.886;2022-10-24T13:16:41;5.23;;;1.43;;
13951;SDS011;39535;52.192;9.886;2022-10-24T13:19:22;1.40;;;0.77;;
13951;SDS011;39535;52.192;9.886;2022-10-24T13:21:51;2.27;;;1.00;;
13951;SDS011;39535;52.192;9.886;2022-10-24T13:24:29;3.70;;;1.07;;
13951;SDS011;39535;52.192;9.886;2022-10-24T13:30:00;5.30;;;1.17;;
13951;SDS011;39535;52.192;9.886;2022-10-24T13:32:49;6.33;;;1.17;;
13951;SDS011;39535;52.192;9.886;2022-10-24T13:35:18;1.53;;;0.60;;
13951;SDS011;39535;52.192;9.886;2022-10-24T13:37:47;1.33;;;0.70;;
13951;SDS011;39535;52.192;9.886;2022-10-24T13:40:20;4.93;;;1.30;;
13951;SDS011;39535;52.192;9.886;2022-10-24T13:42:53;4.77;;;1.00;;
13951;SDS011;39535;52.192;9.886;2022-10-24T13:45:24;1.97;;;1.00;;
13951;SDS011;39535;52.192;9.886;2022-10-24T13:47:55;2.30;;;0.73;;
13951;SDS011;39535;52.192;9.886;2022-10-24T13:50:27;5.20;;;1.30;;
13951;SDS011;39535;52.192;9.886;2022-10-24T13:52:56;2.27;;;1.00;;
13951;SDS011;39535;52.192;9.886;2022-10-24T13:55:26;1.80;;;0.67;;
13951;SDS011;39535;52.192;9.886;2022-10-24T13:57:57;1.53;;;0.60;;
13951;SDS011;39535;52.192;9.886;2022-10-24T14:00:26;1.93;;;1.03;;
13951;SDS011;39535;52.192;9.886;2022-10-24T14:02:54;4.87;;;0.90;;
13951;SDS011;39535;52.192;9.886;2022-10-24T14:05:30;2.37;;;0.70;;
13951;SDS011;39535;52.192;9.886;2022-10-24T14:08:00;1.93;;;0.80;;
13951;SDS011;39535;52.192;9.886;2022-10-24T14:10:27;4.83;;;0.87;;
13951;SDS011;39535;52.192;9.886;2022-10-24T14:12:54;2.40;;;1.00;;
13951;SDS011;39535;52.192;9.886;2022-10-24T14:15:23;3.40;;;0.90;;
13951;SDS011;39535;52.192;9.886;2022-10-24T14:17:54;1.90;;;0.93;;
13951;SDS011;39535;52.192;9.886;2022-10-24T14:20:24;2.17;;;0.73;;
13951;SDS011;39535;52.192;9.886;2022-10-24T14:22:52;3.53;;;1.20;;
13951;SDS011;39535;52.192;9.886;2022-10-24T14:25:26;4.80;;;1.13;;
13951;SDS011;39535;52.192;9.886;2022-10-24T14:27:57;2.50;;;0.83;;
13951;SDS011;39535;52.192;9.886;2022-10-24T14:30:26;2.40;;;1.20;;
13951;SDS011;39535;52.192;9.886;2022-10-24T14:33:05;1.40;;;0.80;;
13951;SDS011;39535;52.192;9.886;2022-10-24T14:35:32;2.80;;;0.83;;
13951;SDS011;39535;52.192;9.886;2022-10-24T14:37:59;2.77;;;0.80;;
13951;SDS011;39535;52.192;9.886;2022-10-24T14:40:26;3.73;;;0.90;;
13951;SDS011;39535;52.192;9.886;2022-10-24T14:42:56;4.13;;;1.10;;
13951;SDS011;39535;52.192;9.886;2022-10-24T14:45:23;2.70;;;1.10;;
13951;SDS011;39535;52.192;9.886;2022-10-24T14:47:52;4.50;;;1.07;;
13951;SDS011;39535;52.192;9.886;2022-10-24T14:50:34;1.70;;;0.70;;
13951;SDS011;39535;52.192;9.886;2022-10-24T14:53:02;2.97;;;1.07;;
13951;SDS011;39535;52.192;9.886;2022-10-24T14:55:29;1.80;;;0.90;;
13951;SDS011;39535;52.192;9.886;2022-10-24T14:57:56;2.87;;;0.90;;
13951;SDS011;39535;52.192;9.886;2022-10-24T15:00:23;2.47;;;1.00;;
13951;SDS011;39535;52.192;9.886;2022-10-24T15:02:52;2.00;;;0.93;;
13951;SDS011;39535;52.192;9.886;2022-10-24T15:05:29;4.50;;;1.40;;
13951;SDS011;39535;52.192;9.886;2022-10-24T15:11:00;1.77;;;0.77;;
13951;SDS011;39535;52.192;9.886;2022-10-24T15:13:30;2.67;;;0.87;;
13951;SDS011;39535;52.192;9.886;2022-10-24T15:15:58;4.37;;;1.20;;
13951;SDS011;39535;52.192;9.886;2022-10-24T15:18:26;3.13;;;0.90;;
13951;SDS011;39535;52.192;9.886;2022-10-24T15:20:58;4.03;;;0.80;;
13951;SDS011;39535;52.192;9.886;2022-10-24T15:23:29;1.00;;;0.90;;
13951;SDS011;39535;52.192;9.886;2022-10-24T15:26:01;1.07;;;0.83;;
13951;SDS011;39535;52.192;9.886;2022-10-24T15:28:37;1.93;;;0.87;;
13951;SDS011;39535;52.192;9.886;2022-10-24T15:31:09;5.00;;;0.93;;